<?xml version="1.0" encoding="UTF-8" standalone="no" ?>
<gpx xmlns="http://www.topografix.com/GPX/1/1" xmlns:xsi="http://www.w3.org/2001/XMLSchema-instance" xsi:schemaLocation="http://www.topografix.com/GPX/1/1 http://www.topografix.com/GPX/1/1/gpx.xsd" version="1.1" creator="VisuGPX - https://www.visugpx.com">
  <metadata>
    <name>Rando LN</name>
  </metadata>
  <trk>
    <name><![CDATA[Col du trébatut]]></name>
    <extensions>
      <line xmlns="http://www.topografix.com/GPX/gpx_style/0/2">
        <color>e100ff</color>
        <width>4</width>
      </line>
    </extensions>
    <trkseg>
      <trkpt lat="44.5761" lon="3.09336">
        <ele>1332.72</ele>
        <time>2019-07-07T15:27:30Z</time>
      </trkpt>
      <trkpt lat="44.5761" lon="3.09336">
        <ele>1332.72</ele>
        <time>2019-07-07T15:27:30Z</time>
      </trkpt>
      <trkpt lat="44.5761" lon="3.09336">
        <ele>1332.72</ele>
        <time>2019-07-07T15:27:30Z</time>
      </trkpt>
      <trkpt lat="44.5761" lon="3.09336">
        <ele>1332.72</ele>
        <time>2019-07-07T15:27:30Z</time>
      </trkpt>
      <trkpt lat="44.57598" lon="3.09347">
        <ele>1330.957</ele>
        <time>2019-07-07T15:27:50Z</time>
      </trkpt>
      <trkpt lat="44.57605" lon="3.09391">
        <ele>1329.446</ele>
        <time>2019-07-07T15:28:10Z</time>
      </trkpt>
      <trkpt lat="44.57578" lon="3.09479">
        <ele>1322.212</ele>
        <time>2019-07-07T15:28:30Z</time>
      </trkpt>
      <trkpt lat="44.57583" lon="3.09586">
        <ele>1320.814</ele>
        <time>2019-07-07T15:28:50Z</time>
      </trkpt>
      <trkpt lat="44.57598" lon="3.0965">
        <ele>1317.054</ele>
        <time>2019-07-07T15:29:10Z</time>
      </trkpt>
      <trkpt lat="44.57582" lon="3.09718">
        <ele>1313.209</ele>
        <time>2019-07-07T15:29:30Z</time>
      </trkpt>
      <trkpt lat="44.57588" lon="3.09796">
        <ele>1312.608</ele>
        <time>2019-07-07T15:29:50Z</time>
      </trkpt>
      <trkpt lat="44.57508" lon="3.10172">
        <ele>1340.495</ele>
        <time>2019-07-07T15:30:10Z</time>
      </trkpt>
      <trkpt lat="44.57386" lon="3.10598">
        <ele>1372.289</ele>
        <time>2019-07-07T15:30:30Z</time>
      </trkpt>
      <trkpt lat="44.57385" lon="3.10661">
        <ele>1376.953</ele>
        <time>2019-07-07T15:30:50Z</time>
      </trkpt>
      <trkpt lat="44.5741" lon="3.10729">
        <ele>1376.41</ele>
        <time>2019-07-07T15:31:10Z</time>
      </trkpt>
      <trkpt lat="44.5743" lon="3.10978">
        <ele>1366.184</ele>
        <time>2019-07-07T15:31:30Z</time>
      </trkpt>
      <trkpt lat="44.57448" lon="3.11094">
        <ele>1357.971</ele>
        <time>2019-07-07T15:31:50Z</time>
      </trkpt>
      <trkpt lat="44.57411" lon="3.11243">
        <ele>1347.34</ele>
        <time>2019-07-07T15:32:10Z</time>
      </trkpt>
      <trkpt lat="44.57369" lon="3.11367">
        <ele>1341.266</ele>
        <time>2019-07-07T15:32:30Z</time>
      </trkpt>
      <trkpt lat="44.57318" lon="3.1142">
        <ele>1340.711</ele>
        <time>2019-07-07T15:32:50Z</time>
      </trkpt>
      <trkpt lat="44.57245" lon="3.1156">
        <ele>1335.221</ele>
        <time>2019-07-07T15:33:10Z</time>
      </trkpt>
      <trkpt lat="44.572" lon="3.11697">
        <ele>1326.703</ele>
        <time>2019-07-07T15:33:30Z</time>
      </trkpt>
      <trkpt lat="44.57137" lon="3.11744">
        <ele>1327.508</ele>
        <time>2019-07-07T15:33:50Z</time>
      </trkpt>
      <trkpt lat="44.57141" lon="3.11785">
        <ele>1327.125</ele>
        <time>2019-07-07T15:34:10Z</time>
      </trkpt>
      <trkpt lat="44.57171" lon="3.11861">
        <ele>1326.759</ele>
        <time>2019-07-07T15:34:30Z</time>
      </trkpt>
      <trkpt lat="44.57194" lon="3.12094">
        <ele>1332.393</ele>
        <time>2019-07-07T15:34:50Z</time>
      </trkpt>
      <trkpt lat="44.57149" lon="3.12224">
        <ele>1340.83</ele>
        <time>2019-07-07T15:35:10Z</time>
      </trkpt>
      <trkpt lat="44.57132" lon="3.12364">
        <ele>1345.464</ele>
        <time>2019-07-07T15:35:30Z</time>
      </trkpt>
      <trkpt lat="44.57046" lon="3.12378">
        <ele>1349.171</ele>
        <time>2019-07-07T15:35:50Z</time>
      </trkpt>
      <trkpt lat="44.57028" lon="3.12403">
        <ele>1351.02</ele>
        <time>2019-07-07T15:36:10Z</time>
      </trkpt>
      <trkpt lat="44.57012" lon="3.12445">
        <ele>1353.496</ele>
        <time>2019-07-07T15:36:30Z</time>
      </trkpt>
      <trkpt lat="44.56932" lon="3.12546">
        <ele>1360.729</ele>
        <time>2019-07-07T15:36:50Z</time>
      </trkpt>
      <trkpt lat="44.56929" lon="3.12583">
        <ele>1365.3</ele>
        <time>2019-07-07T15:37:10Z</time>
      </trkpt>
      <trkpt lat="44.56917" lon="3.12634">
        <ele>1369.42</ele>
        <time>2019-07-07T15:37:30Z</time>
      </trkpt>
      <trkpt lat="44.56899" lon="3.1264">
        <ele>1370.808</ele>
        <time>2019-07-07T15:37:50Z</time>
      </trkpt>
      <trkpt lat="44.56899" lon="3.12684">
        <ele>1375.556</ele>
        <time>2019-07-07T15:38:10Z</time>
      </trkpt>
      <trkpt lat="44.56794" lon="3.12874">
        <ele>1392.35</ele>
        <time>2019-07-07T15:38:30Z</time>
      </trkpt>
      <trkpt lat="44.56704" lon="3.13102">
        <ele>1395.444</ele>
        <time>2019-07-07T15:38:50Z</time>
      </trkpt>
      <trkpt lat="44.56617" lon="3.13269">
        <ele>1395.121</ele>
        <time>2019-07-07T15:39:10Z</time>
      </trkpt>
      <trkpt lat="44.56543" lon="3.13375">
        <ele>1393.855</ele>
        <time>2019-07-07T15:39:30Z</time>
      </trkpt>
      <trkpt lat="44.56501" lon="3.13401">
        <ele>1391.112</ele>
        <time>2019-07-07T15:39:50Z</time>
      </trkpt>
      <trkpt lat="44.56505" lon="3.13463">
        <ele>1392.271</ele>
        <time>2019-07-07T15:40:10Z</time>
      </trkpt>
      <trkpt lat="44.56484" lon="3.1352">
        <ele>1391.657</ele>
        <time>2019-07-07T15:40:30Z</time>
      </trkpt>
      <trkpt lat="44.5649" lon="3.13606">
        <ele>1392.869</ele>
        <time>2019-07-07T15:40:50Z</time>
      </trkpt>
      <trkpt lat="44.56426" lon="3.13845">
        <ele>1393.804</ele>
        <time>2019-07-07T15:41:10Z</time>
      </trkpt>
      <trkpt lat="44.56403" lon="3.13909">
        <ele>1392.824</ele>
        <time>2019-07-07T15:41:30Z</time>
      </trkpt>
      <trkpt lat="44.56383" lon="3.14057">
        <ele>1391.908</ele>
        <time>2019-07-07T15:41:50Z</time>
      </trkpt>
      <trkpt lat="44.56351" lon="3.14149">
        <ele>1387.03</ele>
        <time>2019-07-07T15:42:10Z</time>
      </trkpt>
      <trkpt lat="44.56343" lon="3.14191">
        <ele>1386.794</ele>
        <time>2019-07-07T15:42:30Z</time>
      </trkpt>
      <trkpt lat="44.56265" lon="3.14325">
        <ele>1380.868</ele>
        <time>2019-07-07T15:42:50Z</time>
      </trkpt>
      <trkpt lat="44.56237" lon="3.14341">
        <ele>1378.735</ele>
        <time>2019-07-07T15:43:10Z</time>
      </trkpt>
      <trkpt lat="44.56217" lon="3.1439">
        <ele>1377.389</ele>
        <time>2019-07-07T15:43:30Z</time>
      </trkpt>
      <trkpt lat="44.56177" lon="3.14444">
        <ele>1378.376</ele>
        <time>2019-07-07T15:43:50Z</time>
      </trkpt>
      <trkpt lat="44.56146" lon="3.14539">
        <ele>1371.625</ele>
        <time>2019-07-07T15:44:10Z</time>
      </trkpt>
      <trkpt lat="44.56098" lon="3.14611">
        <ele>1366.911</ele>
        <time>2019-07-07T15:44:30Z</time>
      </trkpt>
      <trkpt lat="44.56053" lon="3.14751">
        <ele>1373.089</ele>
        <time>2019-07-07T15:44:50Z</time>
      </trkpt>
      <trkpt lat="44.56032" lon="3.14907">
        <ele>1374.706</ele>
        <time>2019-07-07T15:45:10Z</time>
      </trkpt>
      <trkpt lat="44.55961" lon="3.15073">
        <ele>1373.926</ele>
        <time>2019-07-07T15:45:30Z</time>
      </trkpt>
      <trkpt lat="44.55927" lon="3.15192">
        <ele>1371.908</ele>
        <time>2019-07-07T15:45:50Z</time>
      </trkpt>
      <trkpt lat="44.55857" lon="3.15416">
        <ele>1370.032</ele>
        <time>2019-07-07T15:46:10Z</time>
      </trkpt>
      <trkpt lat="44.55814" lon="3.15514">
        <ele>1369.266</ele>
        <time>2019-07-07T15:46:30Z</time>
      </trkpt>
      <trkpt lat="44.55815" lon="3.15621">
        <ele>1368.69</ele>
        <time>2019-07-07T15:46:50Z</time>
      </trkpt>
      <trkpt lat="44.55829" lon="3.15784">
        <ele>1366.777</ele>
        <time>2019-07-07T15:47:10Z</time>
      </trkpt>
      <trkpt lat="44.55778" lon="3.15846">
        <ele>1361.561</ele>
        <time>2019-07-07T15:47:30Z</time>
      </trkpt>
      <trkpt lat="44.55708" lon="3.15867">
        <ele>1360.668</ele>
        <time>2019-07-07T15:47:50Z</time>
      </trkpt>
      <trkpt lat="44.55646" lon="3.15837">
        <ele>1358.067</ele>
        <time>2019-07-07T15:48:10Z</time>
      </trkpt>
      <trkpt lat="44.55558" lon="3.15935">
        <ele>1353.023</ele>
        <time>2019-07-07T15:48:30Z</time>
      </trkpt>
      <trkpt lat="44.55324" lon="3.1612">
        <ele>1343.964</ele>
        <time>2019-07-07T15:48:50Z</time>
      </trkpt>
      <trkpt lat="44.55244" lon="3.16156">
        <ele>1342.706</ele>
        <time>2019-07-07T15:49:10Z</time>
      </trkpt>
      <trkpt lat="44.54892" lon="3.16372">
        <ele>1329.216</ele>
        <time>2019-07-07T15:49:30Z</time>
      </trkpt>
      <trkpt lat="44.54718" lon="3.16475">
        <ele>1314.708</ele>
        <time>2019-07-07T15:49:50Z</time>
      </trkpt>
      <trkpt lat="44.545" lon="3.16714">
        <ele>1281.66</ele>
        <time>2019-07-07T15:50:10Z</time>
      </trkpt>
      <trkpt lat="44.54421" lon="3.16815">
        <ele>1263.714</ele>
        <time>2019-07-07T15:50:30Z</time>
      </trkpt>
      <trkpt lat="44.54362" lon="3.16855">
        <ele>1252.728</ele>
        <time>2019-07-07T15:50:50Z</time>
      </trkpt>
      <trkpt lat="44.54185" lon="3.16886">
        <ele>1232.445</ele>
        <time>2019-07-07T15:51:10Z</time>
      </trkpt>
      <trkpt lat="44.53983" lon="3.16947">
        <ele>1219.659</ele>
        <time>2019-07-07T15:51:30Z</time>
      </trkpt>
      <trkpt lat="44.53897" lon="3.16916">
        <ele>1210.986</ele>
        <time>2019-07-07T15:51:50Z</time>
      </trkpt>
      <trkpt lat="44.5381" lon="3.16914">
        <ele>1197.885</ele>
        <time>2019-07-07T15:52:10Z</time>
      </trkpt>
      <trkpt lat="44.53739" lon="3.16923">
        <ele>1186.791</ele>
        <time>2019-07-07T15:52:30Z</time>
      </trkpt>
      <trkpt lat="44.53623" lon="3.16895">
        <ele>1169.583</ele>
        <time>2019-07-07T15:52:50Z</time>
      </trkpt>
      <trkpt lat="44.53593" lon="3.16862">
        <ele>1166.325</ele>
        <time>2019-07-07T15:53:10Z</time>
      </trkpt>
      <trkpt lat="44.53501" lon="3.1686">
        <ele>1160.217</ele>
        <time>2019-07-07T15:53:30Z</time>
      </trkpt>
      <trkpt lat="44.5336" lon="3.16914">
        <ele>1143.908</ele>
        <time>2019-07-07T15:53:50Z</time>
      </trkpt>
      <trkpt lat="44.53298" lon="3.16961">
        <ele>1140.662</ele>
        <time>2019-07-07T15:54:10Z</time>
      </trkpt>
      <trkpt lat="44.53242" lon="3.17026">
        <ele>1135.156</ele>
        <time>2019-07-07T15:54:30Z</time>
      </trkpt>
      <trkpt lat="44.53139" lon="3.17029">
        <ele>1126.84</ele>
        <time>2019-07-07T15:54:50Z</time>
      </trkpt>
      <trkpt lat="44.53054" lon="3.1704">
        <ele>1120.537</ele>
        <time>2019-07-07T15:55:10Z</time>
      </trkpt>
      <trkpt lat="44.52983" lon="3.17071">
        <ele>1116.431</ele>
        <time>2019-07-07T15:55:30Z</time>
      </trkpt>
      <trkpt lat="44.52922" lon="3.17042">
        <ele>1113.328</ele>
        <time>2019-07-07T15:55:50Z</time>
      </trkpt>
      <trkpt lat="44.52788" lon="3.17014">
        <ele>1101.237</ele>
        <time>2019-07-07T15:56:10Z</time>
      </trkpt>
      <trkpt lat="44.52774" lon="3.16963">
        <ele>1097.913</ele>
        <time>2019-07-07T15:56:30Z</time>
      </trkpt>
      <trkpt lat="44.52747" lon="3.16993">
        <ele>1097.022</ele>
        <time>2019-07-07T15:56:50Z</time>
      </trkpt>
      <trkpt lat="44.52629" lon="3.1709">
        <ele>1084.262</ele>
        <time>2019-07-07T15:57:10Z</time>
      </trkpt>
    </trkseg>
  </trk>
</gpx>